createdAt,value
2022-12-25T00:00:39.959Z,98.36
2022-12-25T00:01:39.879Z,98.18
2022-12-25T00:02:40.150Z,98.27
2022-12-25T00:03:40.024Z,98.46
2022-12-25T00:04:39.772Z,98.18
2022-12-25T00:05:39.733Z,98.55
2022-12-25T00:06:39.694Z,98.46
2022-12-25T00:07:39.659Z,98.27
2022-12-25T00:08:39.627Z,98.18
2022-12-25T00:09:39.594Z,98.08
2022-12-25T00:10:44.917Z,98.08
2022-12-25T00:11:39.529Z,98.55
2022-12-25T00:12:39.473Z,98.36
2022-12-25T00:13:39.444Z,98.18
2022-12-25T00:14:39.405Z,98.36
2022-12-25T00:15:39.366Z,98.08
2022-12-25T00:16:39.363Z,98.18
2022-12-25T00:17:39.302Z,97.89
2022-12-25T00:18:39.256Z,97.89
2022-12-25T00:19:39.236Z,97.89
2022-12-25T00:20:39.184Z,97.79
2022-12-25T00:21:39.148Z,97.79
2022-12-25T00:22:39.108Z,97.89
2022-12-25T00:23:39.088Z,98.65
2022-12-25T00:24:39.042Z,97.79
2022-12-25T00:25:39.015Z,97.70
2022-12-25T00:26:38.962Z,97.99
2022-12-25T00:27:38.935Z,98.55
2022-12-25T00:28:38.893Z,97.89
2022-12-25T00:29:38.873Z,97.79
2022-12-25T00:30:38.818Z,97.99
2022-12-25T00:31:38.840Z,97.99
2022-12-25T00:32:38.763Z,97.79
2022-12-25T00:33:38.709Z,98.08
2022-12-25T00:34:38.670Z,97.99
2022-12-25T00:35:38.634Z,97.79
2022-12-25T00:36:41.893Z,97.79
2022-12-25T00:37:38.563Z,97.60
2022-12-25T00:38:38.528Z,97.60
2022-12-25T00:39:38.492Z,97.60
2022-12-25T00:40:38.451Z,97.99
2022-12-25T00:41:38.427Z,97.89
2022-12-25T00:42:38.378Z,97.89
2022-12-25T00:43:38.364Z,97.89
2022-12-25T00:44:38.309Z,97.99
2022-12-25T00:45:38.317Z,97.89
2022-12-25T00:46:38.288Z,97.56
2022-12-25T00:47:38.199Z,97.84
2022-12-25T00:48:38.177Z,97.60
2022-12-25T00:49:38.153Z,97.94
2022-12-25T00:50:38.084Z,97.94
2022-12-25T00:51:38.049Z,97.60
2022-12-25T00:52:38.051Z,97.70
2022-12-25T00:53:38.008Z,97.65
2022-12-25T00:54:37.952Z,97.84
2022-12-25T00:55:37.906Z,97.79
2022-12-25T00:56:37.931Z,97.99
2022-12-25T00:57:37.829Z,97.89
2022-12-25T00:58:37.795Z,97.84
2022-12-25T00:59:37.762Z,97.41
2022-12-25T01:00:37.744Z,97.65
2022-12-25T01:01:37.919Z,97.60
2022-12-25T01:02:37.803Z,97.89
2022-12-25T01:03:37.614Z,97.65
2022-12-25T01:04:37.576Z,97.99
2022-12-25T01:05:37.539Z,97.79
2022-12-25T01:06:37.508Z,97.79
2022-12-25T01:07:37.469Z,97.60
2022-12-25T01:08:37.429Z,97.65
2022-12-25T01:09:37.392Z,97.84
2022-12-25T01:10:37.365Z,97.65
2022-12-25T01:11:37.323Z,97.89
2022-12-25T01:12:37.284Z,97.79
2022-12-25T01:13:37.262Z,97.94
2022-12-25T01:14:37.216Z,98.03
2022-12-25T01:15:37.184Z,97.84
2022-12-25T01:16:37.192Z,97.65
2022-12-25T01:17:37.102Z,98.03
2022-12-25T01:18:37.068Z,97.65
2022-12-25T01:19:37.032Z,98.03
2022-12-25T01:20:37.041Z,97.65
2022-12-25T01:21:36.984Z,97.65
2022-12-25T01:22:36.927Z,97.75
2022-12-25T01:23:36.899Z,98.13
2022-12-25T01:24:36.863Z,97.84
2022-12-25T01:25:36.813Z,97.84
2022-12-25T01:26:36.780Z,98.70
2022-12-25T01:27:36.738Z,98.03
2022-12-25T01:28:36.713Z,97.84
2022-12-25T01:29:36.670Z,97.94
2022-12-25T01:30:36.639Z,98.70
2022-12-25T01:31:36.635Z,98.32
2022-12-25T01:32:36.554Z,98.18
2022-12-25T01:33:36.519Z,98.74
2022-12-25T01:34:36.489Z,98.22
2022-12-25T01:35:36.449Z,98.03
2022-12-25T01:36:36.421Z,97.94
2022-12-25T01:37:36.387Z,98.32
2022-12-25T01:38:36.340Z,98.60
2022-12-25T01:39:36.304Z,98.13
2022-12-25T01:40:36.267Z,98.27
2022-12-25T01:41:36.231Z,98.18
2022-12-25T01:42:36.198Z,97.70
2022-12-25T01:43:36.161Z,98.36
2022-12-25T01:44:36.134Z,98.27
2022-12-25T01:45:36.123Z,98.60
2022-12-25T01:46:36.056Z,98.46
2022-12-25T01:47:36.014Z,97.94
2022-12-25T01:48:35.976Z,97.75
2022-12-25T01:49:35.935Z,97.94
2022-12-25T01:50:35.905Z,98.32
2022-12-25T01:51:35.867Z,98.13
2022-12-25T01:52:35.827Z,98.03
2022-12-25T01:53:35.799Z,98.60
2022-12-25T01:54:35.766Z,97.84
2022-12-25T01:55:35.723Z,97.94
2022-12-25T01:56:35.682Z,97.94
2022-12-25T01:57:35.653Z,98.03
2022-12-25T01:58:35.614Z,97.75
2022-12-25T01:59:35.578Z,98.13
2022-12-25T02:00:35.812Z,97.84
2022-12-25T02:01:35.667Z,98.41
2022-12-25T02:02:35.647Z,97.94
2022-12-25T02:03:35.582Z,97.94
2022-12-25T02:04:35.398Z,98.32
2022-12-25T02:05:35.359Z,98.60
2022-12-25T02:06:35.324Z,97.84
2022-12-25T02:07:35.304Z,98.70
2022-12-25T02:08:35.253Z,97.84
2022-12-25T02:09:35.217Z,97.84
2022-12-25T02:10:35.171Z,98.41
2022-12-25T02:11:35.143Z,97.94
2022-12-25T02:12:35.106Z,98.03
2022-12-25T02:13:35.071Z,97.84
2022-12-25T02:14:35.045Z,97.94
2022-12-25T02:15:34.998Z,98.13
2022-12-25T02:16:35.042Z,97.84
2022-12-25T02:17:34.957Z,97.94
2022-12-25T02:18:34.887Z,98.22
2022-12-25T02:19:34.857Z,98.03
2022-12-25T02:20:34.813Z,97.94
2022-12-25T02:21:34.776Z,98.41
2022-12-25T02:22:34.765Z,97.94
2022-12-25T02:23:34.724Z,98.13
2022-12-25T02:24:34.667Z,98.13
2022-12-25T02:25:34.640Z,98.51
2022-12-25T02:26:34.605Z,98.70
2022-12-25T02:27:34.611Z,97.94
2022-12-25T02:28:34.521Z,97.94
2022-12-25T02:29:34.488Z,97.84
2022-12-25T02:30:34.448Z,98.32
2022-12-25T02:31:34.479Z,98.03
2022-12-25T02:32:34.379Z,98.70
2022-12-25T02:33:34.340Z,98.60
2022-12-25T02:34:34.311Z,98.74
2022-12-25T02:35:34.271Z,98.70
2022-12-25T02:36:34.234Z,97.70
2022-12-25T02:37:34.196Z,98.70
2022-12-25T02:38:34.167Z,98.36
2022-12-25T02:39:34.129Z,98.03
2022-12-25T02:40:34.090Z,98.27
2022-12-25T02:41:34.076Z,98.18
2022-12-25T02:42:34.014Z,98.08
2022-12-25T02:43:33.989Z,98.18
2022-12-25T02:44:33.961Z,98.36
2022-12-25T02:45:33.956Z,98.36
2022-12-25T02:46:34.018Z,98.18
2022-12-25T02:47:33.853Z,98.08
2022-12-25T02:48:33.800Z,98.36
2022-12-25T02:49:33.775Z,98.36
2022-12-25T02:50:33.725Z,98.18
2022-12-25T02:51:33.691Z,98.46
2022-12-25T02:52:33.652Z,98.18
2022-12-25T02:53:33.615Z,98.74
2022-12-25T02:54:33.575Z,98.27
2022-12-25T02:55:33.562Z,98.36
2022-12-25T02:56:33.505Z,98.36
2022-12-25T02:57:33.480Z,98.74
2022-12-25T02:58:33.454Z,98.74
2022-12-25T02:59:33.397Z,98.84
2022-12-25T03:00:33.369Z,98.18
2022-12-25T03:01:33.427Z,98.94
2022-12-25T03:02:33.319Z,98.74
2022-12-25T03:03:33.326Z,98.84
2022-12-25T03:04:33.217Z,98.74
2022-12-25T03:05:33.176Z,98.65
2022-12-25T03:06:33.141Z,98.55
2022-12-25T03:07:33.108Z,98.94
2022-12-25T03:08:33.063Z,98.55
2022-12-25T03:09:33.026Z,98.55
2022-12-25T03:10:33.001Z,98.74
2022-12-25T03:11:32.965Z,98.74
2022-12-25T03:12:32.922Z,98.46
2022-12-25T03:13:32.890Z,98.74
2022-12-25T03:14:32.844Z,98.74
2022-12-25T03:15:32.846Z,98.74
2022-12-25T03:16:32.801Z,98.74
2022-12-25T03:17:32.744Z,98.84
2022-12-25T03:18:32.704Z,98.74
2022-12-25T03:19:32.663Z,98.74
2022-12-25T03:20:32.635Z,97.99
2022-12-25T03:21:32.590Z,98.84
2022-12-25T03:22:32.568Z,98.18
2022-12-25T03:23:32.518Z,98.08
2022-12-25T03:24:32.477Z,98.36
2022-12-25T03:25:32.450Z,98.46
2022-12-25T03:26:32.407Z,98.08
2022-12-25T03:27:32.379Z,98.46
2022-12-25T03:28:32.335Z,98.18
2022-12-25T03:29:32.307Z,98.18
2022-12-25T03:30:32.332Z,98.36
2022-12-25T03:31:32.229Z,98.18
2022-12-25T03:32:32.186Z,98.18
2022-12-25T03:33:46.986Z,98.27
2022-12-25T03:34:32.140Z,98.08
2022-12-25T03:35:32.086Z,98.36
2022-12-25T03:36:32.045Z,98.18
2022-12-25T03:37:32.010Z,98.36
2022-12-25T03:38:31.973Z,98.27
2022-12-25T03:39:31.946Z,98.46
2022-12-25T03:40:31.896Z,98.65
2022-12-25T03:41:31.879Z,98.55
2022-12-25T03:42:31.834Z,97.79
2022-12-25T03:43:31.787Z,97.79
2022-12-25T03:44:31.747Z,97.79
2022-12-25T03:45:31.717Z,97.60
2022-12-25T03:46:31.734Z,97.89
2022-12-25T03:47:31.642Z,97.51
2022-12-25T03:48:31.621Z,97.60
2022-12-25T03:49:31.569Z,97.60
2022-12-25T03:50:31.530Z,97.89
2022-12-25T03:51:31.510Z,97.89
2022-12-25T03:52:31.471Z,97.70
2022-12-25T03:53:31.426Z,97.89
2022-12-25T03:54:31.389Z,97.79
2022-12-25T03:55:31.351Z,97.89
2022-12-25T03:56:31.328Z,97.79
2022-12-25T03:57:31.289Z,97.60
2022-12-25T03:58:31.237Z,97.89
2022-12-25T03:59:31.210Z,97.79
2022-12-25T04:00:31.244Z,97.51
2022-12-25T04:01:31.384Z,97.51
2022-12-25T04:02:31.317Z,97.79
2022-12-25T04:03:31.134Z,97.60
2022-12-25T04:04:31.023Z,97.79
2022-12-25T04:05:31.008Z,97.51
2022-12-25T04:06:30.943Z,97.70
2022-12-25T04:07:30.915Z,97.70
2022-12-25T04:08:30.881Z,97.79
2022-12-25T04:09:30.834Z,97.79
2022-12-25T04:10:30.804Z,97.79
2022-12-25T04:11:30.769Z,97.60
2022-12-25T04:12:30.737Z,97.79
2022-12-25T04:13:30.708Z,97.99
2022-12-25T04:14:30.659Z,97.79
2022-12-25T04:15:30.686Z,98.27
2022-12-25T04:16:30.581Z,98.65
2022-12-25T04:17:30.548Z,98.36
2022-12-25T04:18:30.508Z,98.36
2022-12-25T04:19:30.484Z,98.74
2022-12-25T04:20:30.439Z,98.18
2022-12-25T04:21:30.395Z,98.36
2022-12-25T04:22:30.364Z,98.55
2022-12-25T04:23:30.331Z,98.18
2022-12-25T04:24:30.300Z,98.08
2022-12-25T04:25:30.276Z,98.36
2022-12-25T04:26:30.220Z,98.18
2022-12-25T04:27:30.190Z,98.18
2022-12-25T04:28:30.148Z,98.18
2022-12-25T04:29:30.109Z,98.36
2022-12-25T04:30:30.072Z,98.18
2022-12-25T04:31:30.070Z,98.27
2022-12-25T04:32:30.003Z,98.18
2022-12-25T04:33:29.961Z,98.36
2022-12-25T04:34:29.922Z,98.55
2022-12-25T04:35:29.889Z,98.08
2022-12-25T04:36:29.858Z,98.74
2022-12-25T04:37:29.824Z,98.18
2022-12-25T04:38:29.780Z,98.27
2022-12-25T04:39:29.740Z,98.36
2022-12-25T04:40:29.720Z,98.18
2022-12-25T04:41:29.673Z,98.36
2022-12-25T04:42:29.637Z,98.18
2022-12-25T04:43:29.612Z,98.84
2022-12-25T04:44:29.566Z,98.74
2022-12-25T04:45:29.531Z,98.84
2022-12-25T04:46:29.520Z,98.08
2022-12-25T04:47:29.453Z,98.46
2022-12-25T04:48:29.421Z,98.74
2022-12-25T04:49:29.376Z,98.46
2022-12-25T04:50:29.335Z,98.84
2022-12-25T04:51:29.321Z,98.36
2022-12-25T04:52:29.272Z,98.74
2022-12-25T04:53:29.230Z,98.65
2022-12-25T04:54:29.191Z,98.36
2022-12-25T04:55:29.159Z,98.08
2022-12-25T04:56:29.119Z,98.27
2022-12-25T04:57:29.085Z,98.36
2022-12-25T04:58:29.042Z,98.18
2022-12-25T04:59:29.014Z,98.36
2022-12-25T05:00:28.975Z,98.36
2022-12-25T05:01:29.040Z,98.18
2022-12-25T05:02:29.075Z,98.08
2022-12-25T05:03:28.918Z,98.18
2022-12-25T05:04:28.826Z,98.18
2022-12-25T05:05:28.794Z,98.36
2022-12-25T05:06:28.752Z,97.89
2022-12-25T05:07:28.722Z,98.27
2022-12-25T05:08:28.675Z,97.79
2022-12-25T05:09:28.645Z,97.60
2022-12-25T05:10:28.601Z,97.89
2022-12-25T05:11:28.582Z,97.99
2022-12-25T05:12:28.530Z,98.18
2022-12-25T05:13:28.499Z,98.08
2022-12-25T05:14:28.458Z,98.08
2022-12-25T05:15:28.427Z,97.79
2022-12-25T05:16:28.435Z,97.51
2022-12-25T05:17:28.352Z,97.60
2022-12-25T05:18:28.313Z,97.79
2022-12-25T05:19:28.275Z,97.60
2022-12-25T05:20:28.246Z,97.60
2022-12-25T05:21:28.197Z,97.60
2022-12-25T05:22:28.163Z,97.41
2022-12-25T05:23:28.128Z,97.41
2022-12-25T05:24:28.098Z,97.60
2022-12-25T05:25:28.057Z,97.60
2022-12-25T05:26:28.015Z,97.60
2022-12-25T05:27:27.980Z,97.13
2022-12-25T05:28:27.947Z,97.13
2022-12-25T05:29:27.912Z,96.84
2022-12-25T05:30:27.880Z,97.22
2022-12-25T05:31:28.022Z,97.03
2022-12-25T05:32:27.857Z,97.03
2022-12-25T05:33:27.806Z,96.84
2022-12-25T05:34:27.736Z,97.03
2022-12-25T05:35:27.687Z,96.84
2022-12-25T05:36:27.655Z,96.75
2022-12-25T05:37:27.625Z,97.41
2022-12-25T05:38:27.576Z,97.22
2022-12-25T05:39:27.565Z,96.84
2022-12-25T05:40:27.506Z,97.13
2022-12-25T05:41:32.336Z,97.22
2022-12-25T05:42:27.429Z,97.31
2022-12-25T05:43:27.396Z,97.22
2022-12-25T05:44:27.362Z,97.03
2022-12-25T05:45:27.322Z,97.41
2022-12-25T05:46:27.318Z,97.22
2022-12-25T05:47:27.258Z,97.22
2022-12-25T05:48:27.214Z,97.22
2022-12-25T05:49:27.183Z,97.13
2022-12-25T05:50:27.139Z,97.03
2022-12-25T05:51:27.106Z,97.13
2022-12-25T05:52:27.075Z,97.22
2022-12-25T05:53:27.034Z,97.03
2022-12-25T05:54:26.996Z,96.65
2022-12-25T05:55:26.957Z,97.41
2022-12-25T05:56:26.926Z,97.03
2022-12-25T05:57:26.888Z,97.22
2022-12-25T05:58:26.852Z,97.41
2022-12-25T05:59:26.814Z,97.31
2022-12-25T06:00:26.779Z,97.13
2022-12-25T06:01:26.764Z,97.13
2022-12-25T06:02:26.919Z,97.22
2022-12-25T06:03:26.830Z,96.75
2022-12-25T06:04:26.637Z,97.17
2022-12-25T06:05:26.595Z,97.13
2022-12-25T06:06:26.565Z,97.22
2022-12-25T06:07:26.524Z,97.08
2022-12-25T06:08:26.488Z,97.27
2022-12-25T06:09:26.457Z,96.84
2022-12-25T06:10:26.428Z,97.27
2022-12-25T06:11:26.378Z,97.36
2022-12-25T06:12:26.346Z,97.22
2022-12-25T06:13:26.307Z,96.98
2022-12-25T06:14:26.272Z,96.89
2022-12-25T06:15:26.230Z,97.08
2022-12-25T06:16:26.262Z,97.27
2022-12-25T06:17:26.162Z,97.36
2022-12-25T06:18:26.119Z,96.94
2022-12-25T06:19:26.092Z,97.22
2022-12-25T06:20:26.051Z,97.17
2022-12-25T06:21:26.008Z,97.27
2022-12-25T06:22:25.970Z,97.27
2022-12-25T06:23:25.966Z,97.27
2022-12-25T06:24:25.905Z,97.08
2022-12-25T06:25:25.911Z,96.80
2022-12-25T06:26:25.830Z,96.98
2022-12-25T06:27:25.793Z,96.98
2022-12-25T06:28:25.775Z,97.17
2022-12-25T06:29:25.720Z,96.80
2022-12-25T06:30:25.692Z,97.27
2022-12-25T06:31:25.685Z,97.17
2022-12-25T06:32:25.613Z,97.17
2022-12-25T06:33:25.578Z,97.08
2022-12-25T06:34:25.538Z,97.08
2022-12-25T06:35:25.503Z,97.08
2022-12-25T06:36:25.476Z,97.27
2022-12-25T06:37:25.442Z,97.08
2022-12-25T06:38:25.396Z,97.17
2022-12-25T06:39:25.386Z,97.27
2022-12-25T06:40:25.329Z,97.65
2022-12-25T06:41:25.319Z,97.46
2022-12-25T06:42:25.253Z,97.65
2022-12-25T06:43:25.216Z,97.65
2022-12-25T06:44:25.178Z,97.56
2022-12-25T06:45:25.214Z,97.84
2022-12-25T06:46:25.195Z,97.56
2022-12-25T06:47:25.065Z,98.13
2022-12-25T06:48:25.033Z,97.56
2022-12-25T06:49:24.993Z,97.65
2022-12-25T06:50:24.974Z,97.17
2022-12-25T06:51:24.934Z,97.65
2022-12-25T06:52:24.892Z,97.46
2022-12-25T06:53:24.858Z,97.65
2022-12-25T06:54:24.823Z,97.46
2022-12-25T06:55:24.783Z,97.17
2022-12-25T06:56:24.759Z,97.17
2022-12-25T06:57:24.706Z,97.46
2022-12-25T06:58:24.673Z,98.03
2022-12-25T06:59:24.632Z,97.46
2022-12-25T07:00:24.597Z,97.65
2022-12-25T07:01:24.755Z,97.65
2022-12-25T07:02:24.707Z,97.65
2022-12-25T07:03:24.567Z,97.27
2022-12-25T07:04:24.482Z,97.17
2022-12-25T07:05:24.413Z,97.08
2022-12-25T07:06:24.387Z,97.08
2022-12-25T07:07:24.361Z,97.08
2022-12-25T07:08:24.305Z,97.46
2022-12-25T07:09:24.277Z,97.08
2022-12-25T07:10:24.233Z,97.17
2022-12-25T07:11:24.204Z,96.89
2022-12-25T07:12:24.180Z,97.17
2022-12-25T07:13:26.161Z,97.27
2022-12-25T07:14:24.713Z,97.36
2022-12-25T07:15:24.059Z,97.56
2022-12-25T07:16:24.088Z,97.08
2022-12-25T07:17:24.012Z,97.17
2022-12-25T07:18:23.956Z,97.17
2022-12-25T07:19:23.918Z,96.89
2022-12-25T07:20:23.874Z,96.94
2022-12-25T07:21:23.841Z,96.89
2022-12-25T07:22:23.802Z,96.89
2022-12-25T07:23:23.776Z,96.89
2022-12-25T07:24:23.728Z,97.27
2022-12-25T07:25:23.694Z,97.51
2022-12-25T07:26:23.654Z,97.51
2022-12-25T07:27:23.625Z,97.32
2022-12-25T07:28:23.600Z,97.41
2022-12-25T07:29:23.550Z,97.41
2022-12-25T07:30:23.520Z,97.46
2022-12-25T07:31:23.508Z,97.03
2022-12-25T07:32:23.441Z,97.32
2022-12-25T07:33:23.408Z,96.80
2022-12-25T07:34:23.369Z,97.03
2022-12-25T07:35:23.329Z,96.75
2022-12-25T07:36:23.301Z,97.03
2022-12-25T07:37:23.268Z,97.51
2022-12-25T07:38:23.244Z,97.70
2022-12-25T07:39:23.193Z,97.32
2022-12-25T07:40:23.154Z,96.94
2022-12-25T07:41:23.125Z,96.84
2022-12-25T07:42:25.275Z,96.46
2022-12-25T07:43:23.043Z,96.36
2022-12-25T07:44:23.011Z,96.94
2022-12-25T07:45:22.988Z,97.32
2022-12-25T07:46:22.973Z,97.22
2022-12-25T07:47:22.900Z,96.94
2022-12-25T07:48:22.874Z,97.13
2022-12-25T07:49:22.821Z,96.94
2022-12-25T07:50:22.795Z,96.65
2022-12-25T07:51:22.757Z,97.13
2022-12-25T07:52:22.719Z,97.03
2022-12-25T07:53:22.711Z,96.75
2022-12-25T07:54:22.659Z,96.84
2022-12-25T07:55:22.638Z,96.94
2022-12-25T07:56:22.579Z,97.03
2022-12-25T07:57:22.549Z,96.75
2022-12-25T07:58:23.640Z,96.94
2022-12-25T07:59:22.465Z,97.13
2022-12-25T08:00:22.440Z,97.13
2022-12-25T08:01:22.628Z,96.75
2022-12-25T08:02:22.599Z,96.75
2022-12-25T08:03:22.576Z,96.75
2022-12-25T08:04:22.361Z,96.75
2022-12-25T08:05:22.249Z,96.75
2022-12-25T08:06:22.238Z,96.94
2022-12-25T08:07:22.179Z,96.94
2022-12-25T08:08:22.145Z,96.84
2022-12-25T08:09:22.106Z,96.65
2022-12-25T08:10:22.073Z,96.75
2022-12-25T08:11:22.035Z,96.56
2022-12-25T08:12:22.003Z,96.75
2022-12-25T08:13:21.962Z,97.13
2022-12-25T08:14:21.943Z,96.84
2022-12-25T08:15:21.898Z,96.94
2022-12-25T08:16:21.908Z,97.13
2022-12-25T08:17:21.825Z,97.03
2022-12-25T08:18:27.782Z,96.36
2022-12-25T08:19:21.744Z,95.79
2022-12-25T08:20:21.715Z,95.79
2022-12-25T08:21:21.676Z,95.98
2022-12-25T08:22:21.640Z,96.17
2022-12-25T08:23:21.610Z,95.98
2022-12-25T08:24:21.571Z,96.08
2022-12-25T08:25:21.530Z,96.08
2022-12-25T08:26:21.510Z,96.17
2022-12-25T08:27:21.478Z,95.89
2022-12-25T08:28:21.450Z,96.27
2022-12-25T08:29:21.386Z,96.27
2022-12-25T08:30:21.360Z,95.98
2022-12-25T08:31:21.453Z,95.79
2022-12-25T08:32:21.281Z,95.51
2022-12-25T08:33:21.243Z,95.89
2022-12-25T08:34:21.221Z,96.08
2022-12-25T08:35:21.208Z,95.98
2022-12-25T08:36:21.141Z,95.70
2022-12-25T08:37:21.100Z,95.61
2022-12-25T08:38:21.064Z,95.41
2022-12-25T08:39:21.025Z,95.51
2022-12-25T08:40:20.991Z,95.51
2022-12-25T08:41:20.958Z,95.41
2022-12-25T08:42:21.126Z,95.12
2022-12-25T08:43:20.895Z,95.32
2022-12-25T08:44:20.847Z,95.22
2022-12-25T08:45:20.813Z,95.12
2022-12-25T08:46:20.910Z,95.12
2022-12-25T08:47:20.741Z,95.12
2022-12-25T08:48:20.700Z,95.12
2022-12-25T08:49:20.670Z,95.12
2022-12-25T08:50:20.637Z,95.22
2022-12-25T08:51:20.597Z,95.22
2022-12-25T08:52:20.563Z,94.84
2022-12-25T08:53:20.533Z,94.84
2022-12-25T08:54:20.485Z,94.84
2022-12-25T08:55:20.449Z,95.32
2022-12-25T08:56:20.437Z,95.12
2022-12-25T08:57:20.389Z,94.93
2022-12-25T08:58:20.337Z,95.51
2022-12-25T08:59:20.321Z,95.22
2022-12-25T09:00:20.271Z,95.32
2022-12-25T09:01:20.388Z,95.03
2022-12-25T09:02:20.361Z,94.46
2022-12-25T09:03:20.231Z,94.27
2022-12-25T09:05:20.117Z,94.46
2022-12-25T09:06:20.059Z,94.56
2022-12-25T09:07:20.027Z,94.65
2022-12-25T09:08:19.984Z,94.65
2022-12-25T09:09:19.950Z,94.65
2022-12-25T09:10:19.915Z,94.84
2022-12-25T09:11:40.880Z,94.37
2022-12-25T09:12:19.845Z,94.17
2022-12-25T09:13:19.807Z,94.27
2022-12-25T09:14:19.766Z,94.37
2022-12-25T09:15:19.741Z,93.88
2022-12-25T09:16:19.810Z,94.08
2022-12-25T09:17:40.656Z,94.17
2022-12-25T09:18:19.621Z,94.46
2022-12-25T09:19:19.588Z,94.17
2022-12-25T09:20:19.561Z,93.60
2022-12-25T09:21:19.529Z,93.51
2022-12-25T09:22:19.486Z,93.60
2022-12-25T09:23:40.444Z,93.51
2022-12-25T09:24:19.561Z,93.51
2022-12-25T09:25:19.372Z,92.93
2022-12-25T09:26:19.347Z,93.03
2022-12-25T09:27:19.301Z,93.03
2022-12-25T09:28:19.264Z,92.55
2022-12-25T09:29:40.225Z,92.17
2022-12-25T09:30:19.191Z,91.69
2022-12-25T09:31:19.275Z,91.41
2022-12-25T09:32:19.122Z,91.31
2022-12-25T09:33:19.085Z,90.45
2022-12-25T09:34:19.346Z,90.26
2022-12-25T09:35:40.008Z,89.69
2022-12-25T09:36:18.979Z,89.40
2022-12-25T09:37:18.939Z,89.03
2022-12-25T09:38:18.905Z,88.74
2022-12-25T09:39:18.867Z,88.45
2022-12-25T09:40:18.835Z,88.07
2022-12-25T09:41:39.793Z,87.79
2022-12-25T09:42:18.782Z,87.40
2022-12-25T09:43:18.729Z,87.21
2022-12-25T09:44:18.692Z,87.12
2022-12-25T09:45:18.650Z,87.69
2022-12-25T09:46:18.675Z,87.12
2022-12-25T09:47:39.583Z,86.83
2022-12-25T09:48:18.543Z,86.74
2022-12-25T09:49:18.514Z,86.93
2022-12-25T09:50:18.463Z,86.74
2022-12-25T09:51:18.431Z,85.97
2022-12-25T09:52:18.402Z,85.60
2022-12-25T09:53:39.355Z,85.31
2022-12-25T09:54:18.341Z,84.74
2022-12-25T09:55:20.715Z,84.55
2022-12-25T09:56:18.254Z,84.16
2022-12-25T09:57:18.253Z,83.40
2022-12-25T09:58:18.196Z,82.92
2022-12-25T09:59:39.136Z,82.17
2022-12-25T10:00:18.111Z,82.45
2022-12-25T10:01:18.187Z,81.68
2022-12-25T10:02:18.196Z,81.30
2022-12-25T10:03:18.106Z,80.83
2022-12-25T10:04:17.960Z,79.88
2022-12-25T10:05:38.921Z,79.78
2022-12-25T10:06:17.892Z,78.92
2022-12-25T10:07:17.854Z,78.25
2022-12-25T10:08:17.873Z,77.40
2022-12-25T10:09:17.787Z,77.59
2022-12-25T10:10:17.742Z,76.64
2022-12-25T10:11:38.721Z,76.64
2022-12-25T10:12:17.681Z,75.78
2022-12-25T10:13:17.636Z,74.44
2022-12-25T10:14:17.599Z,73.77
2022-12-25T10:15:17.604Z,73.11
2022-12-25T10:16:17.552Z,72.92
2022-12-25T10:17:38.485Z,72.92
2022-12-25T10:18:17.450Z,72.25
2022-12-25T10:19:17.419Z,71.96
2022-12-25T10:20:17.396Z,71.48
2022-12-25T10:21:17.347Z,71.58
2022-12-25T10:22:17.302Z,70.82
2022-12-25T10:23:38.273Z,70.72
2022-12-25T10:24:17.240Z,70.44
2022-12-25T10:25:17.211Z,70.34
2022-12-25T10:26:17.172Z,69.87
2022-12-25T10:27:17.138Z,69.87
2022-12-25T10:28:17.091Z,69.58
2022-12-25T10:29:38.056Z,69.87
2022-12-25T10:30:17.085Z,69.39
2022-12-25T10:31:17.015Z,69.20
2022-12-25T10:32:16.947Z,68.91
2022-12-25T10:33:17.566Z,69.20
2022-12-25T10:34:16.882Z,68.44
2022-12-25T10:35:37.833Z,68.44
2022-12-25T10:36:16.804Z,68.72
2022-12-25T10:37:16.793Z,68.24
2022-12-25T10:38:16.732Z,67.96
2022-12-25T10:39:16.699Z,68.24
2022-12-25T10:40:16.679Z,68.53
2022-12-25T10:41:37.627Z,68.24
2022-12-25T10:42:16.596Z,67.86
2022-12-25T10:43:16.549Z,67.86
2022-12-25T10:44:16.509Z,67.77
2022-12-25T10:45:16.473Z,67.86
2022-12-25T10:46:16.479Z,67.58
2022-12-25T10:47:37.402Z,67.68
2022-12-25T10:48:16.364Z,67.77
2022-12-25T10:49:16.332Z,67.86
2022-12-25T10:50:16.298Z,67.48
2022-12-25T10:51:16.282Z,67.00
2022-12-25T10:52:16.223Z,66.82
2022-12-25T10:53:37.184Z,66.63
2022-12-25T10:54:16.149Z,66.63
2022-12-25T10:55:16.126Z,66.44
2022-12-25T10:56:16.102Z,66.24
2022-12-25T10:57:16.052Z,66.44
2022-12-25T10:58:16.005Z,66.24
2022-12-25T10:59:36.964Z,66.24
2022-12-25T11:00:15.985Z,65.77
2022-12-25T11:01:16.029Z,65.58
2022-12-25T11:02:15.993Z,65.48
2022-12-25T11:03:16.095Z,65.58
2022-12-25T11:04:15.877Z,65.29
2022-12-25T11:05:36.763Z,65.10
2022-12-25T11:06:15.799Z,65.20
2022-12-25T11:07:15.688Z,65.39
2022-12-25T11:08:15.648Z,64.81
2022-12-25T11:09:15.613Z,65.10
2022-12-25T11:10:15.665Z,64.72
2022-12-25T11:11:36.537Z,64.81
2022-12-25T11:12:15.503Z,64.43
2022-12-25T11:13:15.466Z,64.53
2022-12-25T11:14:15.432Z,64.34
2022-12-25T11:15:15.432Z,64.43
2022-12-25T11:16:15.433Z,64.62
2022-12-25T11:17:36.341Z,64.43
2022-12-25T11:18:15.290Z,64.81
2022-12-25T11:19:15.257Z,64.47
2022-12-25T11:20:15.233Z,64.72
2022-12-25T11:21:15.181Z,64.72
2022-12-25T11:22:15.145Z,64.53
2022-12-25T11:23:36.105Z,64.75
2022-12-25T11:24:15.074Z,64.28
2022-12-25T11:25:15.046Z,64.75
2022-12-25T11:26:15.000Z,65.04
2022-12-25T11:27:14.974Z,64.28
2022-12-25T11:28:14.931Z,65.04
2022-12-25T11:29:35.891Z,64.75
2022-12-25T11:30:16.199Z,64.94
2022-12-25T11:31:14.898Z,64.65
2022-12-25T11:32:14.784Z,65.13
2022-12-25T11:33:14.757Z,64.37
2022-12-25T11:34:14.714Z,65.13
2022-12-25T11:35:35.682Z,65.52
2022-12-25T11:36:14.640Z,64.94
2022-12-25T11:37:14.607Z,65.52
2022-12-25T11:38:14.607Z,65.23
2022-12-25T11:39:14.548Z,64.37
2022-12-25T11:40:14.638Z,64.75
2022-12-25T11:41:35.466Z,64.94
2022-12-25T11:42:14.431Z,64.94
2022-12-25T11:43:14.396Z,64.37
2022-12-25T11:44:14.366Z,64.94
2022-12-25T11:45:14.321Z,64.65
2022-12-25T11:46:14.325Z,64.75
2022-12-25T11:47:35.268Z,64.65
2022-12-25T11:48:14.224Z,64.56
2022-12-25T11:49:14.179Z,65.23
2022-12-25T11:50:14.265Z,65.13
2022-12-25T11:51:14.135Z,65.99
2022-12-25T11:52:14.071Z,65.13
2022-12-25T11:53:35.033Z,65.23
2022-12-25T11:54:13.992Z,65.52
2022-12-25T11:55:13.960Z,64.37
2022-12-25T11:56:13.924Z,65.52
2022-12-25T11:57:13.887Z,65.61
2022-12-25T11:58:13.852Z,64.94
2022-12-25T11:59:34.833Z,65.13
2022-12-25T12:00:13.841Z,64.94
2022-12-25T12:01:13.758Z,64.65
2022-12-25T12:02:13.807Z,64.85
2022-12-25T12:03:13.804Z,64.85
2022-12-25T12:04:13.817Z,64.47
2022-12-25T12:05:34.609Z,65.42
2022-12-25T12:06:13.570Z,65.23
2022-12-25T12:07:13.538Z,65.04
2022-12-25T12:08:13.501Z,65.42
2022-12-25T12:09:13.465Z,65.33
2022-12-25T12:10:13.420Z,65.23
2022-12-25T12:11:34.398Z,65.42
2022-12-25T12:12:13.355Z,65.52
2022-12-25T12:13:13.319Z,65.33
2022-12-25T12:14:13.296Z,65.33
2022-12-25T12:15:13.256Z,65.80
2022-12-25T12:16:13.259Z,66.09
2022-12-25T12:17:34.173Z,65.89
2022-12-25T12:18:13.149Z,66.09
2022-12-25T12:19:13.116Z,66.38
2022-12-25T12:20:13.072Z,66.38
2022-12-25T12:21:13.040Z,65.99
2022-12-25T12:22:12.998Z,65.23
2022-12-25T12:23:34.039Z,65.33
2022-12-25T12:24:12.930Z,65.13
2022-12-25T12:25:12.902Z,65.04
2022-12-25T12:26:12.857Z,65.26
2022-12-25T12:27:12.821Z,65.13
2022-12-25T12:28:12.792Z,65.13
2022-12-25T12:29:33.759Z,64.40
2022-12-25T12:30:12.752Z,64.69
2022-12-25T12:31:12.764Z,64.78
2022-12-25T12:32:12.799Z,64.59
2022-12-25T12:33:12.608Z,64.69
2022-12-25T12:34:12.573Z,65.26
2022-12-25T12:35:33.539Z,65.17
2022-12-25T12:36:12.510Z,65.36
2022-12-25T12:37:12.462Z,64.59
2022-12-25T12:38:12.440Z,64.97
2022-12-25T12:39:12.392Z,64.88
2022-12-25T12:40:12.361Z,65.17
2022-12-25T12:41:33.320Z,65.45
2022-12-25T12:42:12.293Z,65.45
2022-12-25T12:43:12.260Z,65.17
2022-12-25T12:44:12.221Z,65.17
2022-12-25T12:45:12.195Z,65.36
2022-12-25T12:46:12.224Z,66.12
2022-12-25T12:47:33.112Z,65.93
2022-12-25T12:48:12.079Z,66.78
2022-12-25T12:49:12.046Z,66.98
2022-12-25T12:50:12.009Z,67.46
2022-12-25T12:51:11.973Z,66.98
2022-12-25T12:52:11.948Z,66.69
2022-12-25T12:53:32.900Z,67.07